Time;durP1;ratioP1;P1;durP2;ratioP2;P2;SDS_P1;SDS_P2;PMS_P1;PMS_P2;Temp;Humidity;BMP_temperature;BMP_pressure;BME280_temperature;BME280_humidity;BME280_pressure;Samples;Min_cycle;Max_cycle;Signal;HPM_P1;HPM_P2
2022/11/05 00:16:42;;;;;;;37.43;20.13;;;7.70;99.90;;;;;;5043014;28;20425;-75
2022/11/05 00:16:49;;;;;;;31.20;19.27;;;7.60;99.90;;;;;;5047789;28;20410;-73
2022/11/05 00:19:15;;;;;;;32.53;18.75;;;7.50;99.90;;;;;;5053885;28;20407;-72
2022/11/05 00:27:09;;;;;;;34.65;21.30;;;7.40;99.90;;;;;;5041783;28;20742;-72
2022/11/05 00:29:37;;;;;;;37.75;21.20;;;7.20;99.90;;;;;;5045245;28;20390;-73
2022/11/05 00:32:06;;;;;;;37.05;22.10;;;7.10;99.90;;;;;;5040517;28;20390;-73
2022/11/05 00:34:37;;;;;;;34.00;21.42;;;7.10;99.90;;;;;;5041054;28;20391;-73
2022/11/05 00:37:02;;;;;;;43.58;22.52;;;7.00;99.90;;;;;;5047928;28;20389;-71
2022/11/05 00:39:28;;;;;;;37.43;22.20;;;7.00;99.90;;;;;;5046026;28;20450;-72
2022/11/05 00:50:06;;;;;;;32.33;20.60;;;7.40;99.90;;;;;;5037828;28;20406;-71
2022/11/05 00:55:16;;;;;;;33.10;20.77;;;7.50;99.90;;;;;;5033394;28;20806;-72
2022/11/05 00:57:41;;;;;;;38.55;20.10;;;7.60;99.90;;;;;;5034156;28;20392;-72
2022/11/05 01:00:07;;;;;;;33.00;20.10;;;7.50;99.90;;;;;;5043089;28;20411;-72
2022/11/05 01:02:33;;;;;;;35.00;20.05;;;7.60;99.90;;;;;;5039524;28;20383;-72
2022/11/05 01:04:58;;;;;;;34.90;19.60;;;7.70;99.90;;;;;;5038048;28;20397;-72
2022/11/05 01:07:24;;;;;;;40.50;22.77;;;7.50;99.90;;;;;;5049654;28;20410;-73
2022/11/05 01:09:49;;;;;;;31.27;20.30;;;7.40;99.90;;;;;;5040174;28;20786;-72
2022/11/05 01:12:15;;;;;;;33.37;21.03;;;7.30;99.90;;;;;;5039184;28;20399;-74
2022/11/05 01:14:40;;;;;;;37.10;22.30;;;7.20;99.90;;;;;;5040091;28;20533;-72
2022/11/05 01:17:06;;;;;;;34.75;22.13;;;7.20;99.90;;;;;;5041970;28;20502;-73
2022/11/05 01:19:32;;;;;;;36.63;21.65;;;7.10;99.90;;;;;;5046484;28;20411;-73
2022/11/05 01:21:57;;;;;;;38.97;21.25;;;7.00;99.90;;;;;;5046294;28;20387;-74
2022/11/05 01:24:23;;;;;;;35.92;22.30;;;7.00;99.90;;;;;;5045961;28;20399;-74
2022/11/05 01:26:48;;;;;;;39.92;20.63;;;6.90;99.90;;;;;;5045831;28;20391;-73
2022/11/05 01:29:14;;;;;;;35.13;20.55;;;6.80;99.90;;;;;;5045817;28;20406;-72
2022/11/05 01:31:39;;;;;;;33.38;21.42;;;6.80;99.90;;;;;;5041985;28;20455;-73
2022/11/05 01:34:05;;;;;;;36.03;20.80;;;6.80;99.90;;;;;;5039335;28;20399;-73
2022/11/05 01:36:30;;;;;;;35.45;21.20;;;6.80;99.90;;;;;;5039098;28;20391;-72
2022/11/05 01:38:56;;;;;;;37.58;21.38;;;6.70;99.90;;;;;;5037250;28;20391;-73
2022/11/05 01:41:21;;;;;;;39.00;22.40;;;6.60;99.90;;;;;;5039372;28;20442;-73
2022/11/05 01:43:48;;;;;;;32.83;21.25;;;6.60;99.90;;;;;;5038527;28;20375;-72
2022/11/05 01:46:18;;;;;;;33.75;21.10;;;6.60;99.90;;;;;;5048099;28;20379;-72
2022/11/05 01:48:45;;;;;;;36.25;21.48;;;6.70;99.90;;;;;;5047220;28;20422;-73
2022/11/05 01:51:17;;;;;;;39.72;22.42;;;6.80;99.90;;;;;;5049219;28;20395;-73
2022/11/05 01:54:02;;;;;;;39.15;22.45;;;6.90;99.90;;;;;;5049672;28;20517;-73
2022/11/05 01:56:39;;;;;;;36.47;22.30;;;7.00;99.90;;;;;;5049700;28;20383;-71
2022/11/05 01:59:11;;;;;;;33.17;21.05;;;7.10;99.90;;;;;;5047640;28;20762;-71
2022/11/05 02:01:36;;;;;;;31.88;21.30;;;7.20;99.90;;;;;;5044748;28;20387;-73
2022/11/05 02:04:07;;;;;;;33.50;20.00;;;7.50;99.90;;;;;;5043904;28;20383;-72
2022/11/05 02:06:41;;;;;;;32.07;20.30;;;7.40;99.90;;;;;;5050253;28;20387;-71
2022/11/05 02:09:11;;;;;;;33.28;19.92;;;7.50;99.90;;;;;;5050235;28;20378;-72
2022/11/05 02:11:37;;;;;;;28.50;19.30;;;7.50;99.90;;;;;;5040020;28;20391;-73
2022/11/05 02:14:02;;;;;;;33.77;19.00;;;7.40;99.90;;;;;;5038315;28;20725;-72
2022/11/05 02:16:57;;;;;;;33.93;20.90;;;7.30;99.90;;;;;;5034661;28;20391;-71
2022/11/05 02:20:01;;;;;;;31.20;19.73;;;7.30;99.90;;;;;;5035493;28;20417;-72
2022/11/05 02:22:45;;;;;;;31.52;19.58;;;7.20;99.90;;;;;;5035214;28;20380;-73
2022/11/05 02:25:32;;;;;;;28.95;19.40;;;7.10;99.90;;;;;;5035209;28;20527;-73
2022/11/05 02:28:16;;;;;;;31.65;20.73;;;7.20;99.90;;;;;;5035770;28;20380;-71
2022/11/05 02:31:03;;;;;;;38.63;20.90;;;7.00;99.90;;;;;;5033930;28;20459;-72
2022/11/05 02:33:45;;;;;;;29.65;20.02;;;6.90;99.90;;;;;;5034023;28;20826;-73
2022/11/05 02:36:31;;;;;;;31.77;19.38;;;7.10;99.90;;;;;;5033712;28;20465;-73
2022/11/05 02:39:21;;;;;;;42.00;21.85;;;7.10;99.90;;;;;;5033204;28;20461;-73
2022/11/05 02:41:52;;;;;;;30.05;19.80;;;7.20;99.90;;;;;;5032997;28;20895;-73
2022/11/05 02:44:20;;;;;;;31.85;20.17;;;7.20;99.90;;;;;;5034084;28;20537;-72
2022/11/05 02:47:14;;;;;;;34.13;20.40;;;7.20;99.90;;;;;;5035125;28;20384;-73
2022/11/05 02:50:01;;;;;;;32.75;20.45;;;7.20;99.90;;;;;;5034171;28;20478;-72
2022/11/05 02:52:31;;;;;;;31.17;19.85;;;7.30;99.90;;;;;;5034421;28;20455;-72
2022/11/05 02:55:04;;;;;;;30.60;19.90;;;7.30;99.90;;;;;;5034101;28;20401;-74
2022/11/05 02:57:34;;;;;;;33.65;20.90;;;7.30;99.90;;;;;;5033228;28;20383;-73
2022/11/05 03:00:06;;;;;;;29.10;20.40;;;7.50;99.90;;;;;;5032825;28;20403;-73
2022/11/05 03:02:32;;;;;;;28.42;19.73;;;7.60;99.90;;;;;;5032859;28;20490;-72
2022/11/05 03:04:58;;;;;;;29.25;20.25;;;7.60;99.90;;;;;;5032864;28;20927;-72
2022/11/05 03:07:39;;;;;;;32.83;21.00;;;7.60;99.90;;;;;;5032887;28;20745;-72
2022/11/05 03:10:30;;;;;;;33.00;21.50;;;7.70;99.90;;;;;;5032908;28;20391;-73
2022/11/05 03:13:16;;;;;;;33.70;22.40;;;7.70;99.90;;;;;;5031195;28;20410;-74
2022/11/05 03:16:17;;;;;;;33.60;21.98;;;7.70;99.90;;;;;;5032908;28;20398;-73
2022/11/05 03:18:57;;;;;;;31.33;21.40;;;7.70;99.90;;;;;;5009524;28;20419;-72
2022/11/05 03:21:39;;;;;;;31.15;20.77;;;7.80;99.90;;;;;;5033100;28;20459;-72
2022/11/05 03:24:14;;;;;;;35.20;22.27;;;7.70;99.90;;;;;;5032623;28;20411;-72
2022/11/05 03:26:45;;;;;;;33.95;22.08;;;7.80;99.90;;;;;;5032874;28;20730;-73
2022/11/05 03:29:23;;;;;;;36.67;22.90;;;7.80;99.90;;;;;;5032531;28;20809;-72
2022/11/05 03:31:52;;;;;;;35.40;22.33;;;7.80;99.90;;;;;;5035308;28;20396;-71
2022/11/05 03:34:23;;;;;;;38.63;22.45;;;7.70;99.90;;;;;;5037138;28;20383;-73
2022/11/05 03:36:53;;;;;;;39.08;22.42;;;7.60;99.90;;;;;;5039185;28;20414;-71
2022/11/05 03:39:30;;;;;;;36.05;22.80;;;7.50;99.90;;;;;;5040956;28;20422;-74
2022/11/05 03:41:57;;;;;;;37.80;22.52;;;7.50;99.90;;;;;;5040570;28;20389;-72
2022/11/05 03:44:27;;;;;;;32.78;21.85;;;7.40;99.90;;;;;;5041368;28;20383;-72
2022/11/05 03:46:59;;;;;;;36.22;22.25;;;7.50;99.90;;;;;;5036636;28;20787;-72
2022/11/05 03:49:31;;;;;;;40.45;21.77;;;7.40;99.90;;;;;;5039431;28;20382;-73
2022/11/05 03:52:03;;;;;;;44.20;23.52;;;7.30;99.90;;;;;;5042331;28;20425;-73
2022/11/05 03:54:28;;;;;;;35.83;21.83;;;7.20;99.90;;;;;;5042007;28;20402;-72
2022/11/05 03:57:13;;;;;;;31.10;21.53;;;7.30;99.90;;;;;;5039416;28;20387;-73
2022/11/05 03:59:47;;;;;;;32.72;22.02;;;7.40;99.90;;;;;;5038337;28;20403;-72
2022/11/05 04:02:16;;;;;;;32.58;20.73;;;7.20;99.90;;;;;;5036203;28;20951;-73
2022/11/05 04:04:42;;;;;;;35.38;22.20;;;7.00;99.90;;;;;;5038618;28;20383;-72
2022/11/05 04:15:21;;;;;;;35.03;21.98;;;6.70;99.90;;;;;;5038407;28;20378;-72
2022/11/05 04:17:46;;;;;;;36.33;22.55;;;6.70;99.90;;;;;;5041843;28;20410;-72
2022/11/05 04:25:49;;;;;;;32.43;21.83;;;6.50;99.90;;;;;;5038207;28;20389;-71
2022/11/05 04:28:15;;;;;;;31.17;21.40;;;6.50;99.90;;;;;;5037404;28;20389;-73
2022/11/05 04:30:43;;;;;;;39.55;23.25;;;6.40;99.90;;;;;;5046594;28;20407;-72
2022/11/05 04:33:11;;;;;;;38.97;23.08;;;6.40;99.90;;;;;;5051493;28;20458;-73
2022/11/05 04:35:48;;;;;;;45.40;22.65;;;6.30;99.90;;;;;;5047210;28;20780;-72
2022/11/05 04:38:16;;;;;;;35.80;23.77;;;6.30;99.90;;;;;;5045472;28;20406;-73
2022/11/05 04:40:42;;;;;;;38.80;23.30;;;6.20;99.90;;;;;;5042084;28;20791;-72
2022/11/05 04:43:12;;;;;;;32.65;21.85;;;6.30;99.90;;;;;;5039270;28;20757;-73
2022/11/05 04:45:37;;;;;;;33.90;21.73;;;6.40;99.90;;;;;;5038860;28;20772;-73
2022/11/05 04:48:03;;;;;;;32.90;22.50;;;6.60;99.90;;;;;;5038025;28;20379;-72
2022/11/05 04:50:30;;;;;;;33.85;22.05;;;6.50;99.90;;;;;;5037301;28;20387;-73
2022/11/05 04:52:55;;;;;;;34.80;22.20;;;6.30;99.90;;;;;;5039784;28;20883;-72
2022/11/05 04:55:21;;;;;;;30.35;21.05;;;6.20;99.90;;;;;;5035535;28;20394;-74
2022/11/05 04:57:51;;;;;;;35.60;21.90;;;6.20;99.90;;;;;;5032583;28;20776;-73
2022/11/05 05:00:18;;;;;;;32.08;21.98;;;6.20;99.90;;;;;;5032481;28;20407;-74
2022/11/05 05:02:45;;;;;;;32.13;21.25;;;6.30;99.90;;;;;;5032362;28;20752;-72
2022/11/05 05:05:10;;;;;;;36.03;21.85;;;6.20;99.90;;;;;;5032583;28;20401;-72
2022/11/05 05:07:36;;;;;;;37.60;21.37;;;6.10;99.90;;;;;;5032205;28;20426;-71
2022/11/05 05:10:04;;;;;;;38.28;22.65;;;6.10;99.90;;;;;;5031335;28;20892;-72
2022/11/05 05:12:31;;;;;;;35.25;22.50;;;6.00;99.90;;;;;;5032181;28;20814;-71
2022/11/05 05:14:57;;;;;;;38.20;23.63;;;6.00;99.90;;;;;;5030460;28;20386;-71
2022/11/05 05:17:23;;;;;;;37.38;23.40;;;6.00;99.90;;;;;;5031683;28;20880;-72
2022/11/05 05:22:32;;;;;;;35.35;23.52;;;5.90;99.90;;;;;;5035606;28;20400;-72
2022/11/05 05:24:58;;;;;;;35.90;23.13;;;5.90;99.90;;;;;;5038933;28;20379;-72
2022/11/05 05:27:25;;;;;;;42.13;24.90;;;6.00;99.90;;;;;;5046540;28;20387;-73
2022/11/05 05:29:50;;;;;;;38.50;24.13;;;6.00;99.90;;;;;;5041638;28;20860;-72
2022/11/05 05:32:16;;;;;;;35.40;24.33;;;6.10;99.90;;;;;;5036631;28;20397;-72
2022/11/05 05:34:41;;;;;;;37.40;23.70;;;6.20;99.90;;;;;;5042720;28;20389;-71
2022/11/05 05:37:07;;;;;;;41.05;24.08;;;6.10;99.90;;;;;;5047847;28;20401;-73
2022/11/05 05:39:32;;;;;;;41.00;25.80;;;6.00;99.90;;;;;;5038750;28;20441;-73
2022/11/05 05:41:58;;;;;;;40.63;25.17;;;5.90;99.90;;;;;;5035317;28;20387;-72
2022/11/05 05:44:23;;;;;;;42.65;25.75;;;6.00;99.90;;;;;;5035816;28;20394;-73
2022/11/05 05:46:49;;;;;;;40.77;24.83;;;6.00;99.90;;;;;;5034994;28;20379;-73
2022/11/05 05:49:14;;;;;;;43.43;26.37;;;5.90;99.90;;;;;;5035017;28;20386;-73
2022/11/05 05:51:40;;;;;;;42.67;26.50;;;5.90;99.90;;;;;;5034743;28;20418;-71
2022/11/05 05:54:06;;;;;;;47.40;27.40;;;5.80;99.90;;;;;;5035167;28;20918;-74
2022/11/05 05:56:31;;;;;;;44.85;27.42;;;5.80;99.90;;;;;;5035253;28;20884;-73
2022/11/05 05:58:57;;;;;;;46.40;27.75;;;5.80;99.90;;;;;;5034147;28;20383;-72
2022/11/05 06:01:22;;;;;;;44.25;27.08;;;5.80;99.90;;;;;;5032619;28;20387;-71
2022/11/05 06:03:49;;;;;;;43.55;27.38;;;5.80;99.90;;;;;;5034424;28;20418;-72
2022/11/05 06:06:19;;;;;;;54.57;27.23;;;5.80;99.90;;;;;;5032804;28;20451;-72
2022/11/05 06:08:46;;;;;;;42.85;26.85;;;5.80;99.90;;;;;;5033845;28;20369;-73
2022/11/05 06:11:12;;;;;;;41.67;27.25;;;5.80;99.90;;;;;;5033579;28;20391;-72
2022/11/05 06:13:37;;;;;;;41.28;26.60;;;5.90;99.90;;;;;;5034001;28;20792;-72
2022/11/05 06:16:05;;;;;;;52.65;28.00;;;5.80;99.90;;;;;;5033508;28;20876;-72
2022/11/05 06:18:31;;;;;;;50.38;26.95;;;5.80;99.90;;;;;;5034266;28;20451;-74
2022/11/05 06:21:01;;;;;;;48.50;27.25;;;5.70;99.90;;;;;;5033887;28;20415;-73
2022/11/05 06:23:29;;;;;;;50.10;26.50;;;5.80;99.90;;;;;;5034163;28;20406;-75
2022/11/05 06:26:01;;;;;;;48.33;27.45;;;5.90;99.90;;;;;;5033794;28;20375;-74
2022/11/05 06:28:28;;;;;;;47.07;28.27;;;5.90;99.90;;;;;;5033917;28;20404;-74
2022/11/05 06:30:54;;;;;;;53.78;29.40;;;5.80;99.90;;;;;;5033895;28;20387;-72
2022/11/05 06:33:20;;;;;;;54.50;28.33;;;5.80;99.90;;;;;;5032994;28;20384;-73
2022/11/05 06:35:45;;;;;;;46.20;28.47;;;5.90;99.90;;;;;;5036765;28;20743;-74
2022/11/05 06:38:11;;;;;;;50.20;28.87;;;5.90;99.90;;;;;;5036753;28;20392;-72
2022/11/05 06:40:36;;;;;;;55.47;29.37;;;5.90;99.90;;;;;;5033830;28;20924;-72
2022/11/05 06:43:02;;;;;;;51.17;29.17;;;5.90;99.90;;;;;;5033280;28;20440;-72
2022/11/05 06:45:27;;;;;;;48.70;28.77;;;5.80;99.90;;;;;;5034000;28;20385;-73
2022/11/05 06:47:57;;;;;;;50.93;29.43;;;5.80;99.90;;;;;;5034032;28;20437;-74
2022/11/05 06:50:26;;;;;;;49.45;27.80;;;5.90;99.90;;;;;;5035803;28;20387;-73
2022/11/05 06:52:57;;;;;;;50.50;27.88;;;5.90;99.90;;;;;;5040990;28;20403;-73
2022/11/05 06:55:23;;;;;;;52.55;29.05;;;5.80;99.90;;;;;;5035105;28;20791;-74
2022/11/05 06:57:49;;;;;;;48.65;28.27;;;5.90;99.90;;;;;;5038111;28;20426;-74
2022/11/05 07:00:16;;;;;;;47.38;28.20;;;5.90;99.90;;;;;;5042578;28;20489;-74
2022/11/05 07:02:41;;;;;;;48.67;28.67;;;6.00;99.90;;;;;;5035875;28;20383;-74
2022/11/05 07:05:10;;;;;;;50.03;28.70;;;6.00;99.90;;;;;;5032631;28;20452;-74
2022/11/05 07:07:37;;;;;;;55.72;28.55;;;6.00;99.90;;;;;;5033419;28;20395;-73
2022/11/05 07:10:08;;;;;;;48.88;28.50;;;6.00;99.90;;;;;;5032807;28;20380;-73
2022/11/05 07:12:33;;;;;;;51.13;30.50;;;6.00;99.90;;;;;;5031108;28;20430;-74
2022/11/05 07:14:59;;;;;;;52.60;29.87;;;6.00;99.90;;;;;;5032285;28;20394;-73
2022/11/05 07:17:25;;;;;;;51.53;30.05;;;6.10;99.90;;;;;;5032321;28;20418;-75
2022/11/05 07:19:50;;;;;;;49.67;29.35;;;6.20;99.90;;;;;;5033060;28;20414;-74
2022/11/05 07:22:16;;;;;;;51.45;28.45;;;6.40;99.90;;;;;;5036865;28;20917;-73
2022/11/05 07:24:42;;;;;;;51.35;29.90;;;6.40;99.90;;;;;;5033123;28;20386;-73
2022/11/05 07:27:08;;;;;;;52.50;29.13;;;6.40;99.90;;;;;;5031103;28;20379;-73
2022/11/05 07:29:33;;;;;;;49.05;29.52;;;6.40;99.90;;;;;;5037774;28;20406;-72
2022/11/05 07:31:59;;;;;;;56.07;28.80;;;6.40;99.90;;;;;;5033355;28;20419;-73
2022/11/05 07:34:24;;;;;;;48.20;29.50;;;6.60;99.90;;;;;;5033976;28;20529;-71
2022/11/05 07:36:50;;;;;;;48.88;29.55;;;6.60;99.90;;;;;;5046963;28;20406;-74
2022/11/05 07:39:16;;;;;;;46.05;27.98;;;6.60;99.90;;;;;;5032065;28;20440;-73
2022/11/05 07:41:41;;;;;;;52.95;29.58;;;6.70;99.90;;;;;;5031095;28;20387;-73
2022/11/05 07:44:07;;;;;;;50.03;29.75;;;6.70;99.90;;;;;;5029995;28;20398;-75
2022/11/05 07:46:32;;;;;;;48.17;28.40;;;6.80;99.90;;;;;;5031453;28;20888;-74
2022/11/05 07:48:58;;;;;;;56.75;29.92;;;6.90;99.90;;;;;;5030293;28;20384;-74
2022/11/05 07:51:24;;;;;;;44.65;27.17;;;6.90;99.90;;;;;;5036309;28;20430;-74
2022/11/05 07:53:50;;;;;;;49.10;28.23;;;7.00;99.90;;;;;;5048256;28;20491;-72
2022/11/05 07:56:15;;;;;;;44.27;27.00;;;7.10;99.90;;;;;;5015743;28;20889;-73
2022/11/05 07:58:41;;;;;;;45.95;27.40;;;7.10;99.90;;;;;;5044404;28;20638;-74
2022/11/05 08:01:06;;;;;;;45.10;26.83;;;7.20;99.90;;;;;;5046681;28;20406;-72
2022/11/05 08:03:33;;;;;;;43.90;27.10;;;7.30;99.90;;;;;;5035842;28;20436;-73
2022/11/05 08:05:58;;;;;;;44.35;27.00;;;7.30;99.90;;;;;;5030826;28;20471;-72
2022/11/05 08:08:24;;;;;;;41.87;27.10;;;7.30;99.90;;;;;;5031825;28;20816;-72
2022/11/05 08:10:50;;;;;;;41.90;27.03;;;7.40;99.90;;;;;;5031379;28;20879;-73
2022/11/05 08:13:16;;;;;;;45.25;27.38;;;7.50;99.90;;;;;;5031253;28;20409;-74
2022/11/05 08:15:42;;;;;;;43.03;26.63;;;7.60;99.90;;;;;;5031658;28;20383;-74
2022/11/05 08:18:14;;;;;;;42.85;26.60;;;7.70;99.90;;;;;;5031395;28;20673;-73
2022/11/05 08:20:40;;;;;;;39.63;24.67;;;7.80;99.90;;;;;;5031695;28;20410;-74
2022/11/05 08:23:06;;;;;;;44.30;26.08;;;7.90;99.90;;;;;;5031761;28;20379;-73
2022/11/05 08:25:31;;;;;;;41.25;25.38;;;8.40;99.90;;;;;;5032183;28;20778;-73
2022/11/05 08:27:59;;;;;;;41.50;23.90;;;8.80;99.90;;;;;;5031542;28;20387;-73
2022/11/05 08:30:25;;;;;;;37.55;24.52;;;8.80;99.90;;;;;;5033876;28;20422;-72
2022/11/05 08:32:56;;;;;;;37.60;23.30;;;8.70;99.90;;;;;;5034241;28;20375;-73
2022/11/05 08:35:21;;;;;;;39.38;24.25;;;8.60;99.90;;;;;;5033982;28;20421;-73
2022/11/05 08:37:47;;;;;;;42.50;23.27;;;8.60;99.90;;;;;;5032732;28;20876;-72
2022/11/05 08:40:12;;;;;;;35.80;22.48;;;8.70;99.90;;;;;;5031970;28;20411;-73
2022/11/05 08:42:38;;;;;;;33.80;22.52;;;8.60;99.90;;;;;;5014681;28;20451;-72
2022/11/05 08:45:04;;;;;;;38.10;23.08;;;8.70;99.90;;;;;;5030891;28;20388;-72
2022/11/05 08:47:30;;;;;;;37.97;22.60;;;8.70;99.90;;;;;;5030573;28;20385;-73
2022/11/05 08:49:55;;;;;;;34.60;20.70;;;8.80;99.90;;;;;;5044269;28;20401;-72
2022/11/05 08:52:21;;;;;;;30.63;19.47;;;8.90;99.90;;;;;;5025837;28;20787;-73
2022/11/05 08:54:46;;;;;;;31.43;18.97;;;9.00;99.90;;;;;;5011885;28;20396;-73
2022/11/05 08:57:12;;;;;;;34.70;18.80;;;9.00;99.90;;;;;;5029332;28;20811;-74
2022/11/05 08:59:37;;;;;;;32.33;19.27;;;9.20;99.90;;;;;;5036967;28;20407;-72
2022/11/05 09:02:03;;;;;;;31.30;17.42;;;9.90;99.90;;;;;;5035424;28;20383;-74
2022/11/05 09:04:29;;;;;;;26.63;16.55;;;10.50;99.90;;;;;;5033748;28;20402;-75
2022/11/05 09:06:54;;;;;;;29.67;17.23;;;10.50;87.00;;;;;;5031820;28;20444;-75
2022/11/05 09:09:20;;;;;;;34.92;17.15;;;10.30;87.40;;;;;;5033976;28;20532;-74
2022/11/05 09:11:45;;;;;;;33.38;16.90;;;10.20;84.20;;;;;;5033224;28;20390;-74
2022/11/05 09:14:11;;;;;;;32.88;16.35;;;10.10;83.90;;;;;;5034687;28;20398;-73
2022/11/05 09:16:37;;;;;;;32.13;16.33;;;10.10;81.30;;;;;;5034649;28;20387;-73
2022/11/05 09:19:03;;;;;;;30.87;16.97;;;10.10;79.90;;;;;;5033251;28;20493;-74
2022/11/05 09:21:29;;;;;;;23.63;15.93;;;10.10;79.50;;;;;;5030620;28;20770;-74
2022/11/05 09:23:55;;;;;;;32.75;17.48;;;10.10;81.20;;;;;;5032957;28;20696;-75
2022/11/05 09:26:20;;;;;;;30.83;17.67;;;10.10;78.60;;;;;;5032160;28;20398;-74
2022/11/05 09:28:46;;;;;;;30.03;17.73;;;10.10;80.00;;;;;;5032271;28;20386;-73
2022/11/05 09:31:12;;;;;;;34.47;17.50;;;10.10;81.90;;;;;;5031921;28;20882;-73
2022/11/05 09:33:39;;;;;;;29.38;17.13;;;10.10;82.30;;;;;;5032641;28;20391;-73
2022/11/05 09:36:05;;;;;;;31.08;17.02;;;10.20;79.00;;;;;;5035620;28;20412;-73
2022/11/05 09:38:33;;;;;;;24.35;15.65;;;10.20;77.90;;;;;;5038330;28;20390;-75
2022/11/05 09:41:22;;;;;;;27.13;15.85;;;10.40;73.60;;;;;;5038169;28;20414;-74
2022/11/05 09:43:54;;;;;;;27.85;15.90;;;10.40;73.50;;;;;;5033170;28;20441;-73
2022/11/05 09:46:23;;;;;;;32.28;15.70;;;10.40;74.30;;;;;;5039854;28;20391;-73
2022/11/05 09:49:01;;;;;;;34.72;17.33;;;10.50;73.40;;;;;;5043648;28;20387;-74
2022/11/05 09:51:26;;;;;;;32.90;16.40;;;10.50;72.00;;;;;;5038219;28;20415;-74
2022/11/05 09:53:52;;;;;;;30.00;16.30;;;10.60;72.20;;;;;;5043581;28;20399;-73
2022/11/05 09:56:22;;;;;;;34.42;16.52;;;10.70;72.60;;;;;;5040278;28;20402;-75
2022/11/05 09:59:09;;;;;;;24.92;14.82;;;10.70;71.80;;;;;;5035252;28;20380;-74
2022/11/05 10:01:36;;;;;;;27.70;16.00;;;10.60;68.60;;;;;;5032254;28;20406;-73
2022/11/05 10:04:08;;;;;;;31.25;15.65;;;10.70;70.20;;;;;;5034187;28;20391;-73
2022/11/05 10:06:39;;;;;;;26.73;15.15;;;10.80;71.10;;;;;;5066026;28;20399;-74
2022/11/05 10:09:23;;;;;;;29.75;16.33;;;10.90;69.20;;;;;;5034863;28;20415;-74
2022/11/05 10:12:05;;;;;;;27.42;14.88;;;10.90;68.20;;;;;;5032383;28;20395;-74
2022/11/05 10:14:40;;;;;;;29.90;14.40;;;10.90;68.70;;;;;;5034476;28;20383;-73
2022/11/05 10:17:23;;;;;;;22.90;13.32;;;11.00;66.40;;;;;;5034037;28;20926;-74
2022/11/05 10:20:15;;;;;;;22.30;13.93;;;11.10;63.60;;;;;;5034544;28;20442;-74
2022/11/05 10:22:40;;;;;;;22.90;13.52;;;11.30;59.90;;;;;;5034201;28;21050;-76
2022/11/05 10:25:20;;;;;;;24.90;14.20;;;11.40;63.10;;;;;;5049713;28;20490;-76
2022/11/05 10:27:51;;;;;;;23.13;12.23;;;11.40;62.20;;;;;;5043444;28;20387;-75
2022/11/05 10:30:17;;;;;;;25.33;12.40;;;11.50;59.10;;;;;;5041823;28;20384;-80
2022/11/05 10:32:44;;;;;;;25.55;12.10;;;11.70;57.60;;;;;;5040440;28;20379;-79
2022/11/05 10:35:17;;;;;;;21.70;12.40;;;11.80;54.30;;;;;;5038763;28;20891;-75
2022/11/05 10:37:44;;;;;;;19.40;11.10;;;11.80;55.40;;;;;;5035202;28;20395;-76
2022/11/05 10:40:33;;;;;;;21.73;10.93;;;11.90;56.80;;;;;;5034914;28;20775;-74
2022/11/05 10:43:01;;;;;;;17.45;10.05;;;12.00;52.90;;;;;;5034166;28;20454;-75
2022/11/05 10:45:39;;;;;;;17.97;10.60;;;11.90;53.50;;;;;;5033883;28;20481;-76
2022/11/05 10:48:23;;;;;;;14.80;8.85;;;11.90;51.00;;;;;;5034999;28;20379;-74
2022/11/05 10:50:49;;;;;;;14.98;8.55;;;12.00;51.00;;;;;;5036095;28;20393;-73
2022/11/05 10:53:25;;;;;;;15.57;8.93;;;12.20;48.90;;;;;;5035563;28;20395;-74
2022/11/05 10:55:52;;;;;;;21.42;8.27;;;12.50;47.20;;;;;;5035823;28;20398;-75
2022/11/05 10:58:26;;;;;;;16.13;9.88;;;12.60;43.40;;;;;;5035762;28;20426;-76
2022/11/05 11:00:51;;;;;;;16.83;8.60;;;12.70;43.50;;;;;;5034459;28;20415;-74
2022/11/05 11:03:52;;;;;;;21.43;8.50;;;12.90;42.50;;;;;;5034561;28;20448;-74
2022/11/05 11:06:29;;;;;;;15.32;7.63;;;12.90;41.80;;;;;;5034794;28;20911;-74
2022/11/05 11:09:04;;;;;;;15.07;7.63;;;12.90;41.60;;;;;;5034572;28;20386;-72
2022/11/05 11:11:34;;;;;;;17.83;9.32;;;13.00;41.10;;;;;;5033910;28;20399;-75
2022/11/05 11:14:11;;;;;;;18.02;7.78;;;13.00;41.60;;;;;;5033042;28;20506;-75
2022/11/05 11:16:46;;;;;;;16.60;7.57;;;13.10;40.30;;;;;;5037511;28;20394;-74
2022/11/05 11:19:27;;;;;;;14.60;7.27;;;13.30;38.80;;;;;;5041256;28;20446;-74
2022/11/05 11:22:04;;;;;;;12.88;7.00;;;13.30;39.20;;;;;;5044555;28;20443;-75
2022/11/05 11:24:37;;;;;;;17.10;8.20;;;13.40;38.90;;;;;;5043690;28;20386;-73
2022/11/05 11:27:21;;;;;;;13.90;7.57;;;13.70;38.10;;;;;;5046495;28;20403;-74
2022/11/05 11:29:53;;;;;;;13.68;7.15;;;13.90;37.20;;;;;;5046424;28;20398;-74
2022/11/05 11:32:20;;;;;;;11.40;6.70;;;13.80;36.60;;;;;;5046760;28;20499;-74
2022/11/05 11:34:51;;;;;;;14.20;6.78;;;13.90;35.70;;;;;;5051072;28;20505;-73
2022/11/05 11:37:23;;;;;;;16.63;6.82;;;13.80;35.70;;;;;;5058380;28;20397;-75
2022/11/05 11:40:18;;;;;;;15.57;6.85;;;13.80;36.20;;;;;;5048806;28;20420;-73
2022/11/05 11:42:53;;;;;;;16.65;6.90;;;13.80;36.90;;;;;;5038917;28;20398;-72
2022/11/05 11:45:34;;;;;;;11.98;6.57;;;13.80;36.30;;;;;;5038386;28;20462;-73
2022/11/05 11:48:04;;;;;;;13.77;6.78;;;13.70;36.30;;;;;;5032718;28;20371;-72
2022/11/05 11:50:42;;;;;;;15.95;6.20;;;13.70;37.00;;;;;;5032002;28;20740;-74
2022/11/05 11:53:17;;;;;;;12.82;6.00;;;13.70;36.50;;;;;;5030189;28;20444;-75
2022/11/05 11:56:11;;;;;;;12.43;6.20;;;13.90;36.40;;;;;;5030607;28;20886;-73
2022/11/05 11:58:43;;;;;;;11.70;5.63;;;13.90;34.70;;;;;;5005332;28;20512;-73
2022/11/05 12:01:19;;;;;;;12.18;5.30;;;13.90;35.10;;;;;;5047718;28;20403;-73
2022/11/05 12:04:11;;;;;;;15.15;5.75;;;14.00;35.00;;;;;;5050578;28;20746;-72
2022/11/05 12:06:54;;;;;;;10.98;5.05;;;14.10;34.20;;;;;;5026706;28;20392;-74
2022/11/05 12:09:38;;;;;;;7.35;5.30;;;14.10;34.10;;;;;;5050456;28;20400;-74
2022/11/05 12:12:12;;;;;;;9.80;5.13;;;14.10;32.70;;;;;;5051077;28;20762;-73
2022/11/05 12:15:02;;;;;;;12.00;5.65;;;14.00;33.50;;;;;;5041813;28;20412;-72
2022/11/05 12:18:06;;;;;;;13.43;5.40;;;14.00;33.10;;;;;;5048664;23;20390;-73
2022/11/05 12:20:51;;;;;;;10.20;5.35;;;13.90;34.00;;;;;;5004338;28;20911;-73
2022/11/05 12:23:38;;;;;;;17.67;5.97;;;13.80;34.20;;;;;;5025786;28;20747;-72
2022/11/05 12:26:25;;;;;;;11.60;5.80;;;13.80;33.60;;;;;;5027555;28;20529;-71
2022/11/05 12:29:05;;;;;;;11.75;5.97;;;13.90;34.70;;;;;;5027016;28;20411;-72
2022/11/05 12:31:40;;;;;;;10.65;6.20;;;13.90;33.20;;;;;;5001238;28;20397;-73
2022/11/05 12:34:25;;;;;;;12.43;6.05;;;13.90;33.70;;;;;;5040150;28;20411;-72
2022/11/05 12:37:15;;;;;;;12.05;6.20;;;13.90;33.70;;;;;;5024254;28;20439;-71
2022/11/05 12:40:05;;;;;;;10.93;5.72;;;13.90;34.60;;;;;;5018430;28;20405;-72
2022/11/05 12:43:02;;;;;;;12.77;6.03;;;14.00;33.50;;;;;;5012327;28;20845;-73
2022/11/05 12:45:53;;;;;;;14.05;6.10;;;14.00;32.80;;;;;;5009321;28;20400;-70
2022/11/05 12:48:21;;;;;;;18.25;6.85;;;14.00;33.00;;;;;;4989869;28;20374;-72
2022/11/05 12:51:01;;;;;;;14.47;6.33;;;14.00;32.70;;;;;;4997551;28;20400;-70
2022/11/05 12:53:40;;;;;;;9.55;5.80;;;14.00;33.00;;;;;;5009283;28;20457;-73
2022/11/05 12:56:15;;;;;;;13.40;5.53;;;13.90;31.90;;;;;;5008877;28;20381;-72
2022/11/05 12:58:46;;;;;;;15.37;6.10;;;14.00;33.20;;;;;;5007918;28;20399;-72
2022/11/05 13:01:18;;;;;;;16.30;6.03;;;13.90;33.00;;;;;;5008742;28;20478;-71
2022/11/05 13:04:10;;;;;;;11.70;6.15;;;13.90;32.50;;;;;;5009055;28;20784;-71
2022/11/05 13:06:39;;;;;;;11.73;5.40;;;14.00;32.10;;;;;;5009312;28;20380;-72
2022/11/05 13:09:17;;;;;;;14.05;6.00;;;13.90;32.90;;;;;;5024317;28;20393;-71
2022/11/05 13:11:56;;;;;;;13.95;5.93;;;13.80;33.50;;;;;;5008638;28;20396;-72
2022/11/05 13:14:32;;;;;;;11.57;6.10;;;13.80;33.50;;;;;;5009123;28;20934;-71
2022/11/05 13:17:11;;;;;;;13.68;6.50;;;13.80;33.20;;;;;;5009408;28;20377;-72
2022/11/05 13:19:46;;;;;;;11.10;5.80;;;13.80;33.40;;;;;;5028835;28;20418;-71
2022/11/05 13:22:37;;;;;;;12.70;5.70;;;13.80;33.30;;;;;;5029661;28;20379;-71
2022/11/05 13:25:15;;;;;;;13.15;5.65;;;13.80;32.90;;;;;;5028667;28;20367;-71
2022/11/05 13:27:49;;;;;;;12.65;5.70;;;13.80;32.00;;;;;;5028946;28;20390;-73
2022/11/05 13:30:21;;;;;;;11.43;5.25;;;13.80;31.60;;;;;;5029414;28;20410;-72
2022/11/05 13:32:54;;;;;;;14.20;5.80;;;13.80;32.30;;;;;;5019063;28;20528;-72
2022/11/05 13:35:28;;;;;;;9.70;5.10;;;13.80;31.90;;;;;;5012689;28;20482;-72
2022/11/05 13:41:23;;;;;;;8.40;5.28;;;13.90;31.20;;;;;;4992585;28;20453;-71
2022/11/05 13:44:07;;;;;;;13.05;5.80;;;13.80;32.10;;;;;;4974836;28;20413;-73
2022/11/05 13:47:00;;;;;;;12.18;5.97;;;13.60;32.70;;;;;;4995834;28;20382;-73